This is the latest recevied weather packets stored in our database for station/object VK3BYD-3. If no packets are shown the sender has not sent any weather packets the latest 10 day(s).
| Time | Temp. | Humidity | Pressure | Rain* | Wind** | Luminosity | Snow |
|---|---|---|---|---|---|---|---|
| 1777608783 | 27.78° C | 45% | 1023.9 hPa | 0 mm | - | - | - |
| 1777607883 | 27.78° C | 45% | 1024 hPa | 0 mm | - | - | - |
| 1777606981 | 27.22° C | 44% | 1024.2 hPa | 0 mm | - | - | - |
| 1777606081 | 27.22° C | 46% | 1024.2 hPa | 0 mm | - | - | - |
| 1777605180 | 27.22° C | 45% | 1024.6 hPa | 0 mm | - | - | - |
| 1777604280 | 26.67° C | 47% | 1024.9 hPa | 0 mm | - | - | - |
| 1777603380 | 26.67° C | 48% | 1025.3 hPa | 0 mm | - | - | - |
| 1777602481 | 25.56° C | 48% | 1025.6 hPa | 0 mm | - | - | - |
| 1777601580 | 25.56° C | 49% | 1025.8 hPa | 0 mm | - | - | - |
| 1777600680 | 25.56° C | 50% | 1026.1 hPa | 0 mm | - | - | - |
| 1777599780 | 25° C | 50% | 1026.3 hPa | 0 mm | - | - | - |
| 1777598880 | 25° C | 50% | 1026.4 hPa | 0 mm | - | - | - |
| 1777597980 | 24.44° C | 53% | 1026.5 hPa | 0 mm | - | - | - |
| 1777597080 | 23.89° C | 54% | 1026.7 hPa | 0 mm | - | - | - |
| 1777596180 | 23.33° C | 56% | 1026.8 hPa | 0 mm | - | - | - |
| 1777595280 | 22.78° C | 57% | 1026.8 hPa | 0 mm | - | - | - |
| 1777594379 | 22.22° C | 58% | 1027 hPa | 0 mm | - | - | - |
| 1777593480 | 21.67° C | 61% | 1027.1 hPa | 0 mm | - | - | - |
| 1777592580 | 20.56° C | 67% | 1027.2 hPa | 0 mm | - | - | - |
| 1777591680 | 19.44° C | 69% | 1027.5 hPa | 0 mm | - | - | - |
| 1777590781 | 18.33° C | 74% | 1027.7 hPa | 0 mm | - | - | - |
| 1777589879 | 16.67° C | 77% | 1027.5 hPa | 0 mm | - | - | - |
| 1777588978 | 15.56° C | 80% | 1027.7 hPa | 0 mm | - | - | - |
| 1777588078 | 14.44° C | 84% | 1027.6 hPa | 0 mm | - | - | - |
| 1777587178 | 12.78° C | 89% | 1027.4 hPa | 0 mm | - | - | - |
* Rain latest hour (hover to see other rain measurements)
** Current wind speed in m/s (hover to see current wind gust speed)